Warrington, Pennsylvania
Current Conditions -  °F | °C
As of 6:54 AM on Friday 31 Oct 2014 (Local Time) from KDYL Reporting Station
Clear Clear  
Wind Chill: 35°   Ceiling: Unl
Heat Index: 35°   Visibility: 10mi
Dew Point: 31°   Wind: 3mph
Humidity: 85%   Direction: 50°NE
Pressure: 30.01"   Gusts: NA
Location:  40.25°N, 75.13°W
Report Text: KDYL 311054Z AUTO 05003KT 10SM CLR 02/M01 A3001 RMK AO2 SLP167 T00171006 $
Loading
Personal Weather Stations






























Interactive Weather Map
Tropical Storm Tracking
New forecast layout! Learn more

10-Day Weather Forecast

Advertisements
Track Severe Weather on mobile